Terminal Aerodrome Forecast
Issued by NWS Sterling, VA

Current Version | Previous Version | Graphics & Text | Print | Product List | Glossary On
Versions: 1 2 3 4 5 6 7 8 9 10 11 12 13 14 15 16 17 18 19 20 21 22 23 24 25 26 27 28
000
FTUS41 KLWX 050353 AAB
TAFIAD
TAF AMD
KIAD 050353Z 0504/0606 36005KT 3SM -RA BR SCT008 OVC025
     FM050800 35008KT 1SM -SNPL OVC008
     FM051000 35014G21KT 1SM -SNPL BR OVC008
     FM051300 35010G17KT 1/2SM SN OVC004
     FM052000 35008KT 3SM -SN OVC020
     FM060000 32010KT P6SM SCT020 BKN070=

USA.gov is the U.S. government's official web portal to all federal, state and local government web resources and services.